Time;durP1;ratioP1;P1;durP2;ratioP2;P2;SDS_P1;SDS_P2;PMS_P1;PMS_P2;Temp;Humidity;BMP_temperature;BMP_pressure;BME280_temperature;BME280_humidity;BME280_pressure;Samples;Min_cycle;Max_cycle;Signal;HPM_P1;HPM_P2
2021/10/31 00:01:17;;;;;;;19.20;11.98;;;12.20;93.30;;;;;;5075588;28;20037;-37
2021/10/31 00:03:43;;;;;;;17.55;12.02;;;12.30;93.40;;;;;;5076148;28;20402;-37
2021/10/31 00:06:09;;;;;;;17.75;10.98;;;12.30;93.20;;;;;;5073669;28;20079;-36
2021/10/31 00:08:35;;;;;;;16.75;10.77;;;12.20;93.10;;;;;;5075636;28;20506;-37
2021/10/31 00:11:02;;;;;;;18.73;12.27;;;12.20;93.30;;;;;;5075503;28;20552;-36
2021/10/31 00:13:28;;;;;;;21.98;11.10;;;12.10;93.30;;;;;;5073973;28;20388;-37
2021/10/31 00:15:54;;;;;;;14.48;11.05;;;12.10;93.50;;;;;;5075181;28;20048;-37
2021/10/31 00:18:20;;;;;;;16.52;11.15;;;12.10;93.70;;;;;;5075304;28;20079;-37
2021/10/31 00:20:45;;;;;;;13.77;9.85;;;12.00;93.70;;;;;;5075163;28;20479;-37
2021/10/31 00:23:11;;;;;;;18.25;11.98;;;12.00;93.80;;;;;;5074887;28;20035;-37
2021/10/31 00:25:37;;;;;;;22.63;10.80;;;12.00;93.90;;;;;;5074806;28;20098;-37
2021/10/31 00:28:03;;;;;;;18.67;11.43;;;12.00;93.90;;;;;;5075201;28;20020;-37
2021/10/31 00:30:28;;;;;;;18.77;11.50;;;11.90;93.90;;;;;;5074682;28;20052;-37
2021/10/31 00:32:54;;;;;;;18.25;12.77;;;12.00;94.00;;;;;;5074824;28;20463;-37
2021/10/31 00:35:20;;;;;;;15.32;11.32;;;12.00;93.70;;;;;;5073489;28;20082;-37
2021/10/31 00:37:45;;;;;;;18.23;11.52;;;11.90;93.50;;;;;;5075276;28;20098;-37
2021/10/31 00:40:12;;;;;;;20.00;11.88;;;12.00;93.70;;;;;;5075178;28;20070;-37
2021/10/31 00:42:38;;;;;;;25.25;11.57;;;11.90;93.60;;;;;;5075211;28;20024;-36
2021/10/31 00:45:05;;;;;;;18.98;11.00;;;11.90;93.60;;;;;;5074472;28;20028;-36
2021/10/31 00:47:31;;;;;;;16.35;10.70;;;12.00;93.70;;;;;;5074222;28;20028;-37
2021/10/31 00:49:57;;;;;;;19.80;12.35;;;11.90;93.60;;;;;;5074716;28;20024;-36
2021/10/31 00:52:23;;;;;;;22.00;12.50;;;11.90;93.60;;;;;;5074657;28;20349;-37
2021/10/31 00:54:49;;;;;;;17.13;11.90;;;11.90;93.40;;;;;;5074517;28;20046;-36
2021/10/31 00:57:15;;;;;;;21.67;11.00;;;11.90;93.40;;;;;;5074875;28;20173;-36
2021/10/31 00:59:41;;;;;;;15.48;10.02;;;11.80;93.50;;;;;;5074879;28;20225;-37
2021/10/31 01:02:11;;;;;;;18.88;10.60;;;11.80;93.60;;;;;;5074506;28;20310;-36
2021/10/31 01:04:40;;;;;;;17.90;10.65;;;11.80;93.70;;;;;;5074220;28;20036;-36
2021/10/31 01:07:20;;;;;;;14.48;9.75;;;11.80;93.60;;;;;;5074340;28;20033;-37
2021/10/31 01:09:50;;;;;;;17.20;11.77;;;11.70;93.70;;;;;;5074022;28;20047;-37
2021/10/31 01:12:45;;;;;;;15.95;10.98;;;11.60;93.80;;;;;;5074199;28;20468;-36
2021/10/31 01:15:28;;;;;;;17.23;10.50;;;11.70;93.80;;;;;;5072867;28;20049;-36
2021/10/31 01:18:15;;;;;;;13.20;9.98;;;11.70;93.60;;;;;;5074021;28;20082;-37
2021/10/31 01:21:12;;;;;;;24.75;12.68;;;11.70;93.80;;;;;;5073731;28;20017;-36
2021/10/31 01:23:59;;;;;;;19.20;11.15;;;11.70;93.60;;;;;;5074293;28;20483;-37
2021/10/31 01:26:46;;;;;;;20.13;10.50;;;11.60;93.70;;;;;;5074043;28;20024;-37
2021/10/31 01:29:32;;;;;;;23.75;11.90;;;11.60;93.60;;;;;;5073838;28;20027;-37
2021/10/31 01:32:19;;;;;;;25.90;13.80;;;11.60;93.60;;;;;;5074020;28;20021;-36
2021/10/31 01:35:09;;;;;;;23.88;14.48;;;11.50;93.80;;;;;;5074109;28;20025;-36
2021/10/31 01:37:51;;;;;;;22.10;12.75;;;11.70;93.90;;;;;;5073702;28;20032;-39
2021/10/31 01:40:37;;;;;;;21.17;11.23;;;11.70;93.80;;;;;;5073248;28;20020;-37
2021/10/31 01:43:18;;;;;;;19.13;11.75;;;11.70;93.70;;;;;;5073510;28;20038;-37
2021/10/31 01:45:57;;;;;;;15.63;10.98;;;11.80;93.50;;;;;;5073142;28;20499;-37
2021/10/31 01:48:38;;;;;;;18.15;9.85;;;11.70;93.30;;;;;;5073690;28;20013;-37
2021/10/31 01:51:13;;;;;;;19.73;9.77;;;11.60;93.50;;;;;;5073297;28;20020;-37
2021/10/31 01:53:52;;;;;;;18.08;9.65;;;11.70;93.40;;;;;;5073634;28;20468;-36
2021/10/31 01:56:21;;;;;;;14.97;9.37;;;11.70;93.40;;;;;;5073215;28;20020;-39
2021/10/31 01:58:53;;;;;;;17.10;10.38;;;11.70;93.10;;;;;;5071846;28;20024;-37
2021/10/31 02:01:21;;;;;;;15.93;8.98;;;11.70;93.00;;;;;;5072130;28;20107;-36
2021/10/31 02:03:49;;;;;;;20.02;10.63;;;11.60;93.00;;;;;;5073285;28;20404;-37
2021/10/31 02:06:17;;;;;;;18.63;9.88;;;11.60;93.10;;;;;;5072631;28;20036;-37
2021/10/31 02:08:45;;;;;;;20.80;9.43;;;11.40;93.10;;;;;;5073076;28;20071;-36
2021/10/31 02:11:11;;;;;;;16.10;9.10;;;11.30;93.40;;;;;;5072890;28;20096;-37
2021/10/31 02:13:40;;;;;;;15.45;9.30;;;11.30;93.50;;;;;;5073078;28;20025;-36
2021/10/31 02:16:06;;;;;;;17.17;8.88;;;11.30;93.80;;;;;;5073230;28;20024;-37
2021/10/31 02:18:33;;;;;;;12.68;8.98;;;11.30;93.70;;;;;;5073491;28;20054;-37
2021/10/31 02:21:00;;;;;;;18.48;9.43;;;11.30;93.70;;;;;;5072846;28;20030;-36
2021/10/31 02:23:26;;;;;;;15.35;9.45;;;11.30;93.60;;;;;;5071464;28;20122;-37
2021/10/31 02:25:52;;;;;;;11.43;9.10;;;11.20;93.70;;;;;;5072932;28;20024;-37
2021/10/31 02:28:17;;;;;;;15.73;9.68;;;11.30;93.80;;;;;;5072920;28;20045;-37
2021/10/31 02:30:44;;;;;;;15.68;8.80;;;11.30;93.50;;;;;;5072603;28;20021;-37
2021/10/31 02:33:10;;;;;;;18.88;9.00;;;11.30;93.30;;;;;;5072843;28;20112;-39
2021/10/31 02:35:35;;;;;;;18.15;9.30;;;11.30;93.20;;;;;;5072568;28;20342;-37
2021/10/31 02:38:01;;;;;;;16.60;8.88;;;11.30;93.10;;;;;;5073820;28;20025;-37
2021/10/31 02:40:27;;;;;;;15.52;8.38;;;11.30;93.10;;;;;;5073225;28;20032;-36
2021/10/31 02:42:53;;;;;;;16.02;9.25;;;11.30;93.00;;;;;;5073424;28;20033;-37
2021/10/31 02:45:19;;;;;;;15.90;8.27;;;11.30;92.90;;;;;;5072880;28;20036;-37
2021/10/31 02:47:47;;;;;;;15.10;8.27;;;11.30;92.70;;;;;;5073471;28;20020;-37
2021/10/31 02:50:25;;;;;;;15.15;7.88;;;11.20;92.90;;;;;;5076487;28;20026;-37
2021/10/31 02:53:17;;;;;;;13.60;6.97;;;11.20;93.20;;;;;;5076423;28;20103;-37
2021/10/31 02:55:55;;;;;;;15.32;7.15;;;11.20;93.10;;;;;;5076558;28;20422;-37
2021/10/31 02:58:28;;;;;;;11.15;7.57;;;11.20;93.10;;;;;;5076838;28;20032;-37
2021/10/31 03:00:58;;;;;;;12.48;7.55;;;11.20;93.00;;;;;;5075183;28;20021;-37
2021/10/31 03:03:24;;;;;;;16.63;7.33;;;11.20;93.20;;;;;;5076329;28;20027;-37
2021/10/31 03:05:52;;;;;;;15.07;7.57;;;11.10;93.10;;;;;;5076372;28;20044;-36
2021/10/31 03:08:19;;;;;;;14.88;7.20;;;11.00;93.20;;;;;;5076192;28;20017;-37
2021/10/31 03:10:52;;;;;;;15.57;7.97;;;11.00;93.30;;;;;;5076269;28;20028;-36
2021/10/31 03:13:17;;;;;;;10.45;6.60;;;11.10;93.20;;;;;;5076289;28;20380;-36
2021/10/31 03:15:43;;;;;;;10.98;6.57;;;11.00;93.30;;;;;;5076083;28;20036;-36
2021/10/31 03:18:09;;;;;;;12.93;7.03;;;11.00;93.40;;;;;;5076214;28;20093;-36
2021/10/31 03:20:34;;;;;;;12.93;6.45;;;11.00;93.50;;;;;;5075948;28;20032;-37
2021/10/31 03:23:00;;;;;;;15.57;5.95;;;10.90;93.40;;;;;;5076249;28;20062;-37
2021/10/31 03:25:26;;;;;;;12.23;6.10;;;10.90;93.40;;;;;;5075754;28;20099;-37
2021/10/31 03:27:52;;;;;;;12.48;6.18;;;10.80;93.50;;;;;;5075953;28;20091;-37
2021/10/31 03:30:18;;;;;;;12.82;6.28;;;10.80;93.60;;;;;;5075680;28;20060;-36
2021/10/31 03:32:44;;;;;;;16.15;5.88;;;10.90;93.60;;;;;;5075836;28;20021;-37
2021/10/31 03:35:10;;;;;;;15.25;6.72;;;10.80;93.60;;;;;;5076186;28;20056;-37
2021/10/31 03:37:36;;;;;;;13.05;6.70;;;10.90;93.70;;;;;;5076006;28;20044;-38
2021/10/31 03:40:02;;;;;;;14.40;6.20;;;11.10;93.50;;;;;;5075635;28;20017;-37
2021/10/31 03:42:28;;;;;;;12.68;6.70;;;11.10;93.00;;;;;;5074379;28;20032;-37
2021/10/31 03:44:54;;;;;;;11.18;5.78;;;10.90;93.00;;;;;;5076242;28;20067;-37
2021/10/31 03:47:22;;;;;;;11.55;6.47;;;10.80;93.10;;;;;;5075611;28;20025;-37
2021/10/31 03:49:49;;;;;;;9.57;6.53;;;10.80;93.20;;;;;;5076028;28;20028;-37
2021/10/31 03:52:14;;;;;;;9.68;6.35;;;10.80;93.30;;;;;;5075865;28;20048;-37
2021/10/31 03:54:40;;;;;;;9.60;6.18;;;10.70;93.40;;;;;;5075715;28;20016;-37
2021/10/31 03:57:07;;;;;;;12.02;6.53;;;10.80;93.40;;;;;;5075664;28;20468;-36
2021/10/31 03:59:32;;;;;;;7.75;5.57;;;10.80;93.50;;;;;;5075054;28;20158;-37
2021/10/31 04:01:58;;;;;;;10.63;6.22;;;10.70;93.60;;;;;;5075722;28;20051;-37
2021/10/31 04:04:24;;;;;;;11.63;7.05;;;10.70;93.70;;;;;;5075787;28;20021;-37
2021/10/31 04:06:49;;;;;;;11.43;7.05;;;10.60;93.70;;;;;;5075118;28;20053;-37
2021/10/31 04:09:15;;;;;;;11.40;6.38;;;10.60;93.80;;;;;;5075334;28;20025;-37
2021/10/31 04:11:40;;;;;;;12.52;7.93;;;10.60;93.90;;;;;;5074157;28;20100;-37
2021/10/31 04:14:06;;;;;;;11.70;8.43;;;10.60;93.90;;;;;;5075701;28;20035;-37
2021/10/31 04:16:32;;;;;;;13.68;6.80;;;10.50;93.90;;;;;;5075309;28;20431;-37
2021/10/31 04:18:57;;;;;;;11.27;6.50;;;10.60;94.00;;;;;;5074204;28;20050;-37
2021/10/31 04:21:23;;;;;;;15.98;8.00;;;10.50;94.00;;;;;;5075481;28;20030;-37
2021/10/31 04:23:49;;;;;;;14.77;6.43;;;10.50;94.00;;;;;;5075194;28;20029;-36
2021/10/31 04:26:14;;;;;;;15.50;7.10;;;10.50;94.00;;;;;;5075162;28;20064;-37
2021/10/31 04:28:40;;;;;;;10.73;7.07;;;10.60;94.10;;;;;;5075239;28;20032;-37
2021/10/31 04:31:06;;;;;;;15.40;6.90;;;10.50;94.10;;;;;;5075288;28;20024;-37
2021/10/31 04:33:31;;;;;;;13.88;8.23;;;10.50;94.10;;;;;;5075178;28;20126;-37
2021/10/31 04:35:57;;;;;;;10.68;7.25;;;10.40;94.10;;;;;;5075233;28;20037;-37
2021/10/31 04:38:27;;;;;;;14.30;7.95;;;10.40;94.10;;;;;;5075137;28;20039;-37
2021/10/31 04:40:53;;;;;;;11.05;8.23;;;10.50;94.20;;;;;;5074755;28;20029;-37
2021/10/31 04:43:22;;;;;;;11.73;7.15;;;10.40;94.20;;;;;;5075348;28;20086;-37
2021/10/31 04:45:48;;;;;;;12.15;8.32;;;10.40;94.20;;;;;;5074515;28;20054;-37
2021/10/31 04:48:14;;;;;;;11.73;7.40;;;10.40;94.10;;;;;;5074956;28;20520;-37
2021/10/31 04:50:40;;;;;;;14.07;8.73;;;10.40;94.20;;;;;;5075111;28;20581;-37
2021/10/31 04:53:07;;;;;;;16.88;7.65;;;10.40;94.20;;;;;;5074897;28;20052;-37
2021/10/31 04:55:37;;;;;;;14.35;7.72;;;10.40;94.10;;;;;;5074408;28;20031;-37
2021/10/31 04:58:03;;;;;;;14.93;7.57;;;10.40;94.20;;;;;;5056318;28;20021;-37
2021/10/31 05:00:29;;;;;;;18.67;8.45;;;10.30;94.20;;;;;;5074566;28;20021;-37
2021/10/31 05:02:56;;;;;;;15.10;8.18;;;10.30;94.20;;;;;;5074295;28;20107;-37
2021/10/31 05:05:22;;;;;;;12.45;8.18;;;10.30;94.30;;;;;;5073873;28;20044;-37
2021/10/31 05:07:49;;;;;;;14.57;7.97;;;10.30;94.30;;;;;;5074077;28;20025;-37
2021/10/31 05:10:16;;;;;;;12.52;8.70;;;10.30;94.30;;;;;;5074022;28;20491;-37
2021/10/31 05:12:41;;;;;;;14.55;8.85;;;10.30;94.20;;;;;;5073717;28;20020;-37
2021/10/31 05:15:08;;;;;;;14.70;7.90;;;10.40;94.20;;;;;;5074133;28;20100;-37
2021/10/31 05:17:34;;;;;;;12.95;8.70;;;10.30;94.20;;;;;;5074507;28;20051;-37
2021/10/31 05:20:01;;;;;;;18.77;7.93;;;10.40;94.20;;;;;;5073881;28;20025;-37
2021/10/31 05:22:27;;;;;;;16.48;7.57;;;10.40;94.20;;;;;;5074295;28;20048;-37
2021/10/31 05:24:52;;;;;;;11.68;7.35;;;10.30;94.20;;;;;;5074206;28;20056;-36
2021/10/31 05:27:18;;;;;;;16.40;8.73;;;10.40;94.20;;;;;;5073825;28;20029;-36
2021/10/31 05:29:44;;;;;;;12.07;7.95;;;10.30;94.20;;;;;;5074101;28;20066;-36
2021/10/31 05:32:09;;;;;;;15.30;7.80;;;10.30;94.20;;;;;;5073843;28;20131;-36
2021/10/31 05:34:35;;;;;;;10.88;7.03;;;10.40;94.10;;;;;;5073879;28;20029;-38
2021/10/31 05:37:01;;;;;;;13.18;7.82;;;10.40;94.00;;;;;;5073697;28;20105;-37
2021/10/31 05:39:26;;;;;;;12.57;7.93;;;10.40;94.00;;;;;;5073416;28;20047;-36
2021/10/31 05:41:52;;;;;;;14.25;6.95;;;10.40;94.00;;;;;;5074068;28;20077;-36
2021/10/31 05:44:18;;;;;;;13.68;7.60;;;10.40;94.00;;;;;;5073670;28;20029;-36
2021/10/31 05:46:44;;;;;;;11.98;8.35;;;10.30;94.00;;;;;;5073495;28;20036;-38
2021/10/31 05:49:09;;;;;;;14.20;8.73;;;10.30;94.00;;;;;;5073847;28;20086;-36
2021/10/31 05:51:35;;;;;;;15.65;8.13;;;10.30;94.00;;;;;;5073652;28;20024;-36
2021/10/31 05:54:02;;;;;;;14.80;8.77;;;10.30;94.00;;;;;;5073536;28;20042;-36
2021/10/31 05:56:27;;;;;;;16.35;9.27;;;10.30;93.90;;;;;;5073687;28;20112;-36
2021/10/31 05:58:53;;;;;;;15.13;9.25;;;10.30;93.90;;;;;;5071955;28;20107;-36
2021/10/31 06:01:19;;;;;;;15.18;7.85;;;10.30;93.90;;;;;;5073466;28;20040;-37
2021/10/31 06:03:44;;;;;;;14.35;7.38;;;10.30;93.90;;;;;;5073839;28;20031;-36
2021/10/31 06:06:10;;;;;;;17.88;8.27;;;10.20;93.80;;;;;;5073211;28;20171;-37
2021/10/31 06:08:36;;;;;;;15.18;8.60;;;10.20;93.90;;;;;;5073160;28;20052;-36
2021/10/31 06:11:01;;;;;;;15.57;9.30;;;10.20;94.00;;;;;;5073228;28;20437;-36
2021/10/31 06:13:27;;;;;;;18.20;9.00;;;10.30;93.80;;;;;;5073465;28;20031;-36
2021/10/31 06:15:53;;;;;;;15.80;9.02;;;10.20;93.80;;;;;;5071794;28;20430;-36
2021/10/31 06:18:19;;;;;;;16.40;8.68;;;10.10;93.90;;;;;;5073597;28;20036;-36
2021/10/31 06:20:46;;;;;;;19.95;10.77;;;10.20;94.00;;;;;;5073818;28;20048;-36
2021/10/31 06:23:14;;;;;;;13.55;8.32;;;10.20;94.00;;;;;;5077117;28;20520;-36
2021/10/31 06:25:39;;;;;;;13.23;8.75;;;10.20;94.00;;;;;;5077095;28;20491;-37
2021/10/31 06:28:05;;;;;;;14.50;8.77;;;10.10;93.80;;;;;;5076959;28;20021;-37
2021/10/31 06:30:31;;;;;;;16.48;8.43;;;10.20;94.00;;;;;;5076965;28;20017;-38
2021/10/31 06:32:56;;;;;;;22.50;9.60;;;10.20;94.00;;;;;;5076849;28;20499;-36
2021/10/31 06:35:22;;;;;;;19.98;9.48;;;10.10;94.00;;;;;;5076866;28;20028;-36
2021/10/31 06:37:49;;;;;;;16.35;9.15;;;10.10;94.10;;;;;;5076893;28;20031;-36
2021/10/31 06:40:16;;;;;;;12.70;9.10;;;10.10;94.00;;;;;;5076912;28;20029;-36
2021/10/31 06:42:42;;;;;;;17.63;10.70;;;10.20;94.00;;;;;;5076852;28;20579;-36
2021/10/31 06:45:08;;;;;;;18.80;10.38;;;10.20;94.00;;;;;;5076737;28;20025;-37
2021/10/31 06:47:34;;;;;;;16.23;9.68;;;10.20;94.10;;;;;;5076323;28;20488;-36
2021/10/31 06:50:00;;;;;;;17.42;10.18;;;10.20;94.10;;;;;;5076380;28;20024;-39
2021/10/31 06:52:26;;;;;;;17.38;10.35;;;10.20;93.90;;;;;;5076239;28;20021;-36
2021/10/31 06:54:53;;;;;;;21.30;10.80;;;10.20;94.00;;;;;;5076314;28;20021;-36
2021/10/31 06:57:18;;;;;;;17.27;11.52;;;10.20;94.00;;;;;;5076020;28;20033;-37
2021/10/31 06:59:44;;;;;;;19.50;10.95;;;10.20;94.00;;;;;;5076025;28;20028;-36
2021/10/31 07:02:10;;;;;;;18.85;11.05;;;10.30;94.00;;;;;;5076633;28;20062;-36
2021/10/31 07:04:35;;;;;;;16.90;10.73;;;10.30;94.00;;;;;;5076012;28;20032;-37
2021/10/31 07:07:02;;;;;;;20.10;11.88;;;10.40;93.90;;;;;;5074593;28;20177;-36
2021/10/31 07:09:28;;;;;;;18.33;11.77;;;10.40;93.70;;;;;;5075955;28;20025;-36
2021/10/31 07:11:55;;;;;;;13.90;10.63;;;10.40;93.60;;;;;;5076664;28;20028;-37
2021/10/31 07:14:21;;;;;;;14.63;10.10;;;10.50;93.40;;;;;;5076139;28;20017;-36
2021/10/31 07:16:47;;;;;;;18.85;11.82;;;10.50;93.40;;;;;;5074452;28;20385;-37
2021/10/31 07:19:13;;;;;;;17.50;11.48;;;10.60;93.30;;;;;;5074372;28;20024;-36
2021/10/31 07:21:38;;;;;;;14.70;11.35;;;10.60;93.20;;;;;;5075748;28;20105;-36
2021/10/31 07:24:05;;;;;;;17.33;9.55;;;10.70;93.20;;;;;;5074337;28;20457;-37
2021/10/31 07:26:31;;;;;;;13.93;9.98;;;10.80;93.20;;;;;;5075512;28;20103;-36
2021/10/31 07:28:57;;;;;;;16.25;9.02;;;10.80;93.00;;;;;;5075876;28;20063;-36
2021/10/31 07:31:24;;;;;;;12.68;8.40;;;10.80;93.00;;;;;;5076777;28;20045;-37
2021/10/31 07:33:50;;;;;;;14.88;8.02;;;10.90;92.90;;;;;;5074886;28;20032;-37
2021/10/31 07:36:16;;;;;;;12.25;7.32;;;11.00;92.80;;;;;;5075608;28;20028;-36
2021/10/31 07:38:43;;;;;;;10.95;7.50;;;11.10;92.50;;;;;;5075770;28;20028;-36
2021/10/31 07:41:10;;;;;;;11.10;7.55;;;11.10;92.10;;;;;;5076434;28;20504;-37
2021/10/31 07:43:36;;;;;;;11.63;7.20;;;11.20;91.80;;;;;;5075730;28;20028;-36
2021/10/31 07:46:02;;;;;;;10.65;6.97;;;11.30;91.40;;;;;;5075315;28;20025;-36
2021/10/31 07:48:28;;;;;;;12.35;7.75;;;11.40;90.80;;;;;;5075727;28;20027;-38
2021/10/31 07:50:54;;;;;;;8.23;6.53;;;11.40;90.70;;;;;;5074191;28;20400;-37
2021/10/31 07:53:20;;;;;;;8.70;6.25;;;11.40;90.50;;;;;;5075286;28;20078;-37
2021/10/31 07:55:51;;;;;;;7.47;5.53;;;11.40;90.20;;;;;;5075083;28;20036;-37
2021/10/31 07:58:19;;;;;;;9.00;5.63;;;11.50;90.30;;;;;;5075455;28;20476;-37
2021/10/31 08:00:45;;;;;;;11.25;6.32;;;11.50;89.80;;;;;;5075433;28;20029;-37
2021/10/31 08:03:11;;;;;;;11.57;7.22;;;11.60;89.60;;;;;;5075071;28;20029;-37
2021/10/31 08:05:38;;;;;;;8.00;5.03;;;11.60;89.30;;;;;;5074782;28;20052;-38
2021/10/31 08:08:05;;;;;;;8.25;5.25;;;11.80;88.90;;;;;;5075242;28;20125;-37
2021/10/31 08:10:31;;;;;;;6.80;4.93;;;11.80;88.60;;;;;;5075153;28;20028;-37
2021/10/31 08:12:56;;;;;;;9.15;5.25;;;11.90;88.50;;;;;;5075199;28;20073;-37
2021/10/31 08:15:22;;;;;;;8.13;5.18;;;12.20;87.90;;;;;;5075020;28;20505;-37
2021/10/31 08:17:48;;;;;;;5.00;4.35;;;12.30;87.30;;;;;;5074861;28;20044;-37
2021/10/31 08:20:14;;;;;;;5.35;3.83;;;12.70;86.20;;;;;;5075001;28;20086;-38
2021/10/31 08:22:40;;;;;;;5.40;3.70;;;13.20;84.50;;;;;;5074700;28;20468;-37
2021/10/31 08:25:06;;;;;;;4.40;3.03;;;13.80;81.80;;;;;;5075192;28;20091;-37
2021/10/31 08:27:33;;;;;;;3.75;3.13;;;14.30;79.40;;;;;;5074617;28;20030;-37
2021/10/31 08:29:59;;;;;;;6.30;3.10;;;14.80;77.30;;;;;;5074786;28;20023;-37
2021/10/31 08:32:26;;;;;;;4.40;2.28;;;14.80;78.40;;;;;;5074551;28;20025;-37
2021/10/31 08:34:51;;;;;;;4.45;2.80;;;15.10;76.70;;;;;;5074592;28;20039;-37
2021/10/31 08:37:17;;;;;;;4.88;2.47;;;15.20;75.50;;;;;;5074463;28;20104;-37
2021/10/31 08:39:43;;;;;;;4.82;2.25;;;14.90;76.60;;;;;;5074473;28;20021;-37
2021/10/31 08:42:09;;;;;;;2.55;2.17;;;14.60;77.40;;;;;;5074415;28;20020;-37
2021/10/31 08:44:37;;;;;;;3.38;1.80;;;15.00;75.80;;;;;;5074245;28;20527;-36
2021/10/31 08:47:03;;;;;;;3.97;1.98;;;15.00;76.10;;;;;;5072973;28;20025;-36
2021/10/31 08:49:28;;;;;;;4.00;1.60;;;14.50;77.60;;;;;;5074309;28;20039;-36
2021/10/31 08:51:54;;;;;;;3.05;2.05;;;14.40;77.20;;;;;;5074137;28;20020;-38
2021/10/31 08:54:20;;;;;;;4.38;1.98;;;14.40;77.80;;;;;;5074116;28;20398;-37
2021/10/31 08:56:47;;;;;;;3.08;2.60;;;14.40;77.60;;;;;;5073824;28;20029;-36
2021/10/31 08:59:12;;;;;;;2.83;2.00;;;14.50;76.80;;;;;;5073940;28;20029;-37
2021/10/31 09:01:38;;;;;;;3.65;1.73;;;15.00;76.30;;;;;;5073773;28;20016;-51
2021/10/31 09:04:04;;;;;;;2.95;1.50;;;15.00;74.40;;;;;;5073706;28;20384;-49
2021/10/31 09:06:29;;;;;;;3.25;1.50;;;15.00;74.60;;;;;;5073671;28;20404;-51
2021/10/31 09:08:57;;;;;;;2.95;1.67;;;15.10;74.00;;;;;;5073634;28;20016;-50
2021/10/31 09:11:23;;;;;;;3.97;1.17;;;15.00;74.60;;;;;;5073940;28;20468;-48
2021/10/31 09:13:52;;;;;;;1.10;1.00;;;15.20;73.70;;;;;;5073842;28;20524;-48
2021/10/31 09:16:18;;;;;;;1.48;1.38;;;15.20;73.60;;;;;;5073666;28;20028;-50
2021/10/31 09:18:44;;;;;;;2.78;1.20;;;15.20;73.20;;;;;;5073599;28;20376;-47
2021/10/31 09:21:10;;;;;;;3.38;2.55;;;14.80;75.10;;;;;;5074127;28;20035;-52
2021/10/31 09:23:36;;;;;;;4.30;1.50;;;14.80;75.20;;;;;;5072054;28;20033;-48
2021/10/31 09:26:03;;;;;;;1.73;1.38;;;14.80;75.00;;;;;;5073702;28;20472;-47
2021/10/31 09:28:29;;;;;;;2.15;1.55;;;14.40;76.60;;;;;;5073392;28;20029;-47
2021/10/31 09:30:55;;;;;;;2.30;1.30;;;14.30;77.40;;;;;;5073017;28;20021;-47
2021/10/31 09:33:21;;;;;;;0.82;0.82;;;14.30;77.00;;;;;;5073252;28;20025;-46
2021/10/31 09:35:49;;;;;;;2.75;0.73;;;14.30;76.70;;;;;;5073304;28;20048;-47
2021/10/31 09:38:17;;;;;;;2.25;1.15;;;14.30;76.90;;;;;;5073036;28;20028;-46
2021/10/31 09:40:43;;;;;;;1.13;0.98;;;14.20;77.30;;;;;;5073293;28;20538;-48
2021/10/31 09:43:09;;;;;;;1.60;1.17;;;14.30;76.90;;;;;;5073378;28;20024;-49
2021/10/31 09:45:38;;;;;;;1.15;0.90;;;14.60;75.90;;;;;;5073674;28;20082;-48
2021/10/31 09:48:11;;;;;;;4.15;2.45;;;14.60;76.40;;;;;;5073207;28;20099;-50
2021/10/31 09:50:45;;;;;;;1.52;1.10;;;14.60;76.40;;;;;;5073320;28;20017;-50
2021/10/31 09:53:17;;;;;;;2.30;1.10;;;14.50;76.80;;;;;;5072944;28;20020;-50
2021/10/31 09:55:45;;;;;;;1.45;1.27;;;14.50;76.10;;;;;;5073018;28;20029;-51
2021/10/31 10:01:36;;;;;;;1.83;1.20;;;14.90;75.60;;;;;;5072282;28;20492;-46
2021/10/31 10:04:02;;;;;;;2.22;1.10;;;15.10;75.40;;;;;;5073698;28;20090;-50
2021/10/31 10:06:31;;;;;;;1.75;1.00;;;15.30;75.00;;;;;;5072803;28;20388;-46
2021/10/31 10:09:01;;;;;;;1.80;1.00;;;15.10;75.20;;;;;;5073421;28;20438;-49
2021/10/31 10:11:28;;;;;;;2.15;1.00;;;15.20;75.40;;;;;;5073046;28;20103;-49
2021/10/31 10:14:05;;;;;;;3.70;1.40;;;15.30;75.00;;;;;;5072934;28;20055;-46
2021/10/31 10:16:31;;;;;;;1.50;1.00;;;15.20;75.30;;;;;;5073255;28;20041;-48
2021/10/31 10:18:57;;;;;;;1.48;1.00;;;15.20;76.10;;;;;;5072985;28;20037;-50
2021/10/31 10:21:31;;;;;;;3.63;1.00;;;15.00;76.20;;;;;;5072659;28;20440;-48
2021/10/31 10:24:10;;;;;;;5.10;1.20;;;15.10;76.00;;;;;;5073019;28;20024;-50
2021/10/31 10:26:37;;;;;;;5.63;1.25;;;15.20;75.70;;;;;;5073145;28;20028;-49
2021/10/31 10:29:16;;;;;;;3.30;1.75;;;15.20;76.10;;;;;;5072894;28;20468;-47
2021/10/31 10:31:46;;;;;;;2.35;1.65;;;15.30;75.50;;;;;;5072567;28;20052;-51
2021/10/31 10:34:12;;;;;;;;;;;15.50;75.40;;;;;;5073364;28;20047;-47
2021/10/31 10:36:46;;;;;;;4.05;1.83;;;15.70;75.10;;;;;;5072982;28;19908;-48
2021/10/31 10:39:17;;;;;;;4.53;1.80;;;15.80;74.60;;;;;;5072977;28;20048;-48
2021/10/31 10:41:48;;;;;;;3.65;1.90;;;15.90;74.50;;;;;;5072675;28;20107;-50
2021/10/31 10:44:25;;;;;;;4.72;2.20;;;16.00;74.00;;;;;;5072972;28;20087;-47
2021/10/31 10:46:56;;;;;;;5.85;1.73;;;16.20;73.80;;;;;;5072470;28;20024;-47
2021/10/31 10:49:24;;;;;;;5.53;2.72;;;16.30;73.10;;;;;;5072820;28;20350;-48
2021/10/31 10:52:08;;;;;;;1.33;1.10;;;16.40;72.80;;;;;;5073129;28;20219;-47
2021/10/31 10:54:35;;;;;;;3.28;2.47;;;16.40;73.00;;;;;;5072295;28;20055;-50
2021/10/31 10:57:04;;;;;;;2.30;1.70;;;16.40;72.90;;;;;;5071392;28;20035;-48
2021/10/31 10:59:31;;;;;;;2.63;1.73;;;16.40;73.00;;;;;;5073042;28;20036;-52
2021/10/31 11:02:17;;;;;;;2.90;1.70;;;16.50;72.90;;;;;;5070547;28;20369;-49
2021/10/31 11:04:58;;;;;;;2.38;1.65;;;16.80;72.10;;;;;;5072203;28;20029;-51
2021/10/31 11:07:35;;;;;;;4.22;2.03;;;16.80;71.90;;;;;;5072669;28;20029;-46
2021/10/31 11:10:07;;;;;;;3.63;1.73;;;16.60;73.00;;;;;;5075035;28;20025;-48
2021/10/31 11:12:37;;;;;;;2.92;1.80;;;16.50;72.60;;;;;;5076918;28;20024;-47
2021/10/31 11:15:08;;;;;;;2.92;2.13;;;16.60;72.70;;;;;;5076136;28;20025;-48
2021/10/31 11:17:35;;;;;;;2.78;2.03;;;16.90;71.90;;;;;;5075672;28;20115;-47
2021/10/31 11:20:01;;;;;;;2.40;2.00;;;16.80;72.30;;;;;;5075676;28;20512;-48
2021/10/31 11:22:29;;;;;;;4.43;2.60;;;17.00;71.90;;;;;;5075930;28;20063;-48
2021/10/31 11:24:56;;;;;;;3.55;1.45;;;17.30;71.20;;;;;;5075655;28;20028;-48
2021/10/31 11:27:24;;;;;;;3.13;2.28;;;17.00;71.60;;;;;;5073951;28;20024;-47
2021/10/31 11:29:52;;;;;;;4.22;2.88;;;17.20;71.30;;;;;;5075656;28;20465;-49
2021/10/31 11:32:20;;;;;;;3.28;2.30;;;17.30;70.30;;;;;;5057863;28;20115;-47
2021/10/31 11:34:49;;;;;;;2.47;1.75;;;17.10;71.70;;;;;;5075685;28;20044;-47
2021/10/31 11:37:19;;;;;;;3.72;1.98;;;16.90;72.40;;;;;;5075664;28;20038;-50
2021/10/31 11:39:45;;;;;;;;;;;17.30;71.10;;;;;;5074964;28;20066;-48
2021/10/31 11:42:13;;;;;;;2.85;2.45;;;17.30;71.30;;;;;;5075433;28;19904;-48
2021/10/31 11:45:03;;;;;;;5.93;2.92;;;17.40;71.20;;;;;;5075590;28;20029;-50
2021/10/31 11:47:30;;;;;;;;;;;17.40;71.30;;;;;;5075771;28;20404;-51
2021/10/31 11:50:20;;;;;;;2.63;1.98;;;17.10;72.70;;;;;;5057027;28;19904;-48
2021/10/31 11:52:56;;;;;;;9.40;2.25;;;16.80;73.30;;;;;;5074910;28;20370;-49
2021/10/31 11:55:31;;;;;;;1.83;1.60;;;16.90;73.60;;;;;;5074915;28;20021;-48
2021/10/31 11:58:22;;;;;;;6.47;1.90;;;17.00;73.80;;;;;;5075122;28;20361;-48
2021/10/31 12:00:53;;;;;;;2.55;1.98;;;16.80;74.40;;;;;;5072046;28;20514;-47
2021/10/31 12:03:33;;;;;;;;;;;17.00;73.80;;;;;;5075503;28;20024;-49
2021/10/31 12:06:00;;;;;;;;;;;17.10;73.40;;;;;;5073849;28;20009;-48
2021/10/31 12:08:55;;;;;;;2.20;1.92;;;17.00;74.30;;;;;;5075164;28;19904;-48
2021/10/31 12:11:32;;;;;;;2.53;1.98;;;16.90;74.10;;;;;;5074758;28;20024;-48
2021/10/31 12:14:04;;;;;;;4.35;1.95;;;17.10;73.70;;;;;;5075467;28;20487;-50
2021/10/31 12:16:48;;;;;;;3.03;2.40;;;17.10;73.70;;;;;;5074505;28;20020;-49
2021/10/31 12:19:15;;;;;;;2.85;2.38;;;17.10;73.40;;;;;;5074711;28;20052;-50
2021/10/31 12:21:41;;;;;;;3.08;1.80;;;17.00;73.70;;;;;;5074438;28;20032;-48
2021/10/31 12:24:22;;;;;;;2.95;2.10;;;16.90;74.00;;;;;;5074525;28;20042;-47
2021/10/31 12:26:49;;;;;;;;;;;16.90;73.90;;;;;;5075129;28;20023;-49
2021/10/31 12:29:24;;;;;;;3.42;1.95;;;16.90;73.60;;;;;;5074460;28;19954;-47
2021/10/31 12:32:07;;;;;;;1.90;1.60;;;16.90;73.70;;;;;;5074680;28;20020;-48
2021/10/31 12:34:38;;;;;;;2.83;1.92;;;17.00;73.80;;;;;;5074544;28;20024;-52
2021/10/31 12:37:26;;;;;;;2.20;1.35;;;17.10;72.90;;;;;;5074007;28;20052;-48
2021/10/31 12:39:53;;;;;;;3.47;1.98;;;17.00;73.20;;;;;;5073807;28;20488;-50
2021/10/31 12:42:20;;;;;;;3.40;1.63;;;17.10;73.00;;;;;;5074078;28;20409;-50
2021/10/31 12:44:56;;;;;;;6.40;2.00;;;17.30;72.70;;;;;;5073789;28;20028;-51
2021/10/31 12:47:25;;;;;;;3.00;2.00;;;17.30;72.00;;;;;;5074128;28;20031;-48
2021/10/31 12:50:09;;;;;;;4.17;2.23;;;17.20;73.00;;;;;;5074076;28;20027;-48
2021/10/31 12:52:35;;;;;;;2.22;1.50;;;17.20;73.10;;;;;;5074134;28;20020;-48